Página principal
METAR-TAF:

METAR-TAF

Aeroportos :

Ilha da Boa Vista, Cabo Verde

Aeroporto Internacional Aristides Pereira

latitude: 16-08-15N, longitude: 22-53-22W, altura: 21 m

Observação actual do tempo

O boletim foi feito há 10 horas e 17 minutos, às 12:00 UTC
Vento 17 kt de nor-nordeste
Temperatura 22°C
Humidade 60%
Pressão 1019 hPa
Visibilidade 10 km ou mais
Nuvens fragmentadasa uma altura de 1500 ft

METAR: GVBA 171200Z 03017KT 9999 BKN015 22/14 Q1019 NOSIG

Hora: 21:17 (22:17 UTC)

Previsão

O boletim foi feito há 11 horas e 17 minutos, às 11:00 UTC
Previsão válida de 17 às 12 UTC a 18 às 18 UTC
Vento 16 kt de nor-nordeste
Visibilidade 10 km ou mais
Nuvens fragmentadasa uma altura de 1500 ft
Temporariamente
de 17 às 12 UTC a 17 às 18 UTC
Vento 16 kt de nor-nordeste com rajadas de 26 kt

TAF: GVBA 171100Z 1712/1818 03016KT 9999 BKN015 TEMPO 1712/1718 03016G26KT

Observações e previsões do tempo de mais de 4000 aeroportos (mensagens METAR e TAF).

As estações disponíveis são os pontos amarelos e vermelhos sobre o mapa.

Mova o rato sobre o mapa para ver o nome da estação.

Depois clique no ponto para visualizar as observações e previsões meteorológicas.

Para alterar o mapa : clique nos botões verdes com uma cruz preta para aumentar o zoom; no botão verde com uma pitada de zoom; ou nas setas verdes para mapas adjacentes.


METAR-TAF: